sensor_id;sensor_type;location;lat;lon;timestamp;P1;durP1;ratioP1;P2;durP2;ratioP2
42602;SDS011;28233;55.748;48.752;2023-03-01T00:01:15;7.13;;;3.65;;
42602;SDS011;28233;55.748;48.752;2023-03-01T00:03:22;7.55;;;3.20;;
42602;SDS011;28233;55.748;48.752;2023-03-01T00:05:25;7.05;;;3.45;;
42602;SDS011;28233;55.748;48.752;2023-03-01T00:07:27;5.82;;;2.83;;
42602;SDS011;28233;55.748;48.752;2023-03-01T00:09:30;3.92;;;2.28;;
42602;SDS011;28233;55.748;48.752;2023-03-01T00:11:33;5.20;;;2.80;;
42602;SDS011;28233;55.748;48.752;2023-03-01T00:13:36;4.15;;;2.88;;
42602;SDS011;28233;55.748;48.752;2023-03-01T00:15:39;5.90;;;3.20;;
42602;SDS011;28233;55.748;48.752;2023-03-01T00:17:43;6.53;;;3.55;;
42602;SDS011;28233;55.748;48.752;2023-03-01T00:19:46;5.13;;;2.45;;
42602;SDS011;28233;55.748;48.752;2023-03-01T00:21:49;7.07;;;3.50;;
42602;SDS011;28233;55.748;48.752;2023-03-01T00:23:52;5.82;;;3.05;;
42602;SDS011;28233;55.748;48.752;2023-03-01T00:25:55;7.13;;;2.85;;
42602;SDS011;28233;55.748;48.752;2023-03-01T00:27:58;7.43;;;3.47;;
42602;SDS011;28233;55.748;48.752;2023-03-01T00:30:01;8.15;;;3.60;;
42602;SDS011;28233;55.748;48.752;2023-03-01T00:32:06;5.68;;;2.45;;
42602;SDS011;28233;55.748;48.752;2023-03-01T00:34:09;6.80;;;2.97;;
42602;SDS011;28233;55.748;48.752;2023-03-01T00:36:13;5.82;;;3.22;;
42602;SDS011;28233;55.748;48.752;2023-03-01T00:38:17;5.15;;;2.88;;
42602;SDS011;28233;55.748;48.752;2023-03-01T00:40:20;3.05;;;1.83;;
42602;SDS011;28233;55.748;48.752;2023-03-01T00:42:24;5.97;;;2.88;;
42602;SDS011;28233;55.748;48.752;2023-03-01T00:44:27;5.32;;;2.67;;
42602;SDS011;28233;55.748;48.752;2023-03-01T00:46:30;4.78;;;1.80;;
42602;SDS011;28233;55.748;48.752;2023-03-01T00:48:34;3.55;;;2.10;;
42602;SDS011;28233;55.748;48.752;2023-03-01T00:50:37;7.38;;;2.55;;
42602;SDS011;28233;55.748;48.752;2023-03-01T00:52:40;4.18;;;1.95;;
42602;SDS011;28233;55.748;48.752;2023-03-01T00:54:43;4.47;;;2.30;;
42602;SDS011;28233;55.748;48.752;2023-03-01T00:56:46;4.43;;;1.75;;
42602;SDS011;28233;55.748;48.752;2023-03-01T00:58:49;4.32;;;2.10;;
42602;SDS011;28233;55.748;48.752;2023-03-01T01:00:52;7.30;;;2.15;;
42602;SDS011;28233;55.748;48.752;2023-03-01T01:02:54;3.08;;;1.95;;
42602;SDS011;28233;55.748;48.752;2023-03-01T01:04:57;3.92;;;2.17;;
42602;SDS011;28233;55.748;48.752;2023-03-01T01:07:00;5.07;;;2.47;;
42602;SDS011;28233;55.748;48.752;2023-03-01T01:09:04;5.55;;;2.63;;
42602;SDS011;28233;55.748;48.752;2023-03-01T01:11:09;5.45;;;2.72;;
42602;SDS011;28233;55.748;48.752;2023-03-01T01:13:13;5.72;;;2.60;;
42602;SDS011;28233;55.748;48.752;2023-03-01T01:15:16;6.90;;;2.35;;
42602;SDS011;28233;55.748;48.752;2023-03-01T01:17:19;4.18;;;2.10;;
42602;SDS011;28233;55.748;48.752;2023-03-01T01:19:22;6.07;;;2.33;;
42602;SDS011;28233;55.748;48.752;2023-03-01T01:21:25;6.10;;;2.60;;
42602;SDS011;28233;55.748;48.752;2023-03-01T01:23:29;5.05;;;2.15;;
42602;SDS011;28233;55.748;48.752;2023-03-01T01:25:33;3.70;;;2.42;;
42602;SDS011;28233;55.748;48.752;2023-03-01T01:27:38;2.60;;;1.60;;
42602;SDS011;28233;55.748;48.752;2023-03-01T01:29:40;3.80;;;2.90;;
42602;SDS011;28233;55.748;48.752;2023-03-01T01:31:44;6.57;;;1.98;;
42602;SDS011;28233;55.748;48.752;2023-03-01T01:33:46;4.75;;;1.88;;
42602;SDS011;28233;55.748;48.752;2023-03-01T01:35:49;4.22;;;1.85;;
42602;SDS011;28233;55.748;48.752;2023-03-01T01:37:52;3.30;;;2.00;;
42602;SDS011;28233;55.748;48.752;2023-03-01T01:39:54;4.47;;;2.38;;
42602;SDS011;28233;55.748;48.752;2023-03-01T01:41:57;6.53;;;2.15;;
42602;SDS011;28233;55.748;48.752;2023-03-01T01:44:13;5.15;;;1.98;;
42602;SDS011;28233;55.748;48.752;2023-03-01T01:46:28;4.50;;;2.40;;
42602;SDS011;28233;55.748;48.752;2023-03-01T01:48:38;4.88;;;2.15;;
42602;SDS011;28233;55.748;48.752;2023-03-01T01:50:43;5.15;;;2.30;;
42602;SDS011;28233;55.748;48.752;2023-03-01T01:52:47;4.65;;;1.92;;
42602;SDS011;28233;55.748;48.752;2023-03-01T01:57:32;3.85;;;1.88;;
42602;SDS011;28233;55.748;48.752;2023-03-01T01:59:39;3.00;;;2.38;;
42602;SDS011;28233;55.748;48.752;2023-03-01T02:01:48;2.78;;;1.60;;
42602;SDS011;28233;55.748;48.752;2023-03-01T02:03:50;4.15;;;1.70;;
42602;SDS011;28233;55.748;48.752;2023-03-01T02:05:55;2.90;;;1.70;;
42602;SDS011;28233;55.748;48.752;2023-03-01T02:08:03;9.13;;;2.50;;
42602;SDS011;28233;55.748;48.752;2023-03-01T02:10:07;3.30;;;1.83;;
42602;SDS011;28233;55.748;48.752;2023-03-01T02:12:10;4.30;;;2.13;;
42602;SDS011;28233;55.748;48.752;2023-03-01T02:14:14;3.30;;;1.45;;
42602;SDS011;28233;55.748;48.752;2023-03-01T02:16:18;4.28;;;2.03;;
42602;SDS011;28233;55.748;48.752;2023-03-01T02:18:21;5.45;;;2.25;;
42602;SDS011;28233;55.748;48.752;2023-03-01T02:22:35;2.95;;;1.75;;
42602;SDS011;28233;55.748;48.752;2023-03-01T02:26:52;3.53;;;1.90;;
42602;SDS011;28233;55.748;48.752;2023-03-01T02:28:57;4.03;;;1.80;;
42602;SDS011;28233;55.748;48.752;2023-03-01T02:31:00;3.77;;;2.00;;
42602;SDS011;28233;55.748;48.752;2023-03-01T02:33:24;6.07;;;2.10;;
42602;SDS011;28233;55.748;48.752;2023-03-01T02:35:32;3.25;;;1.98;;
42602;SDS011;28233;55.748;48.752;2023-03-01T02:37:40;3.83;;;2.00;;
42602;SDS011;28233;55.748;48.752;2023-03-01T02:39:47;3.45;;;2.25;;
42602;SDS011;28233;55.748;48.752;2023-03-01T02:41:53;5.20;;;2.10;;
42602;SDS011;28233;55.748;48.752;2023-03-01T02:43:57;3.92;;;3.45;;
42602;SDS011;28233;55.748;48.752;2023-03-01T02:46:05;4.22;;;1.52;;
42602;SDS011;28233;55.748;48.752;2023-03-01T02:48:15;3.75;;;1.92;;
42602;SDS011;28233;55.748;48.752;2023-03-01T02:53:15;3.33;;;1.52;;
42602;SDS011;28233;55.748;48.752;2023-03-01T02:55:22;4.68;;;1.98;;
42602;SDS011;28233;55.748;48.752;2023-03-01T02:57:25;5.18;;;2.28;;
42602;SDS011;28233;55.748;48.752;2023-03-01T02:59:30;4.57;;;2.08;;
42602;SDS011;28233;55.748;48.752;2023-03-01T03:01:41;2.75;;;1.60;;
42602;SDS011;28233;55.748;48.752;2023-03-01T03:03:44;4.57;;;1.67;;
42602;SDS011;28233;55.748;48.752;2023-03-01T03:05:46;2.95;;;1.70;;
42602;SDS011;28233;55.748;48.752;2023-03-01T03:07:50;3.67;;;1.83;;
42602;SDS011;28233;55.748;48.752;2023-03-01T03:09:53;2.77;;;1.50;;
42602;SDS011;28233;55.748;48.752;2023-03-01T03:11:55;4.13;;;1.73;;
42602;SDS011;28233;55.748;48.752;2023-03-01T03:13:58;3.33;;;1.58;;
42602;SDS011;28233;55.748;48.752;2023-03-01T03:16:01;2.80;;;1.33;;
42602;SDS011;28233;55.748;48.752;2023-03-01T03:18:07;4.55;;;2.00;;
42602;SDS011;28233;55.748;48.752;2023-03-01T03:20:12;2.78;;;1.58;;
42602;SDS011;28233;55.748;48.752;2023-03-01T03:22:21;6.20;;;1.80;;
42602;SDS011;28233;55.748;48.752;2023-03-01T03:24:24;6.27;;;2.60;;
42602;SDS011;28233;55.748;48.752;2023-03-01T03:26:27;5.78;;;1.98;;
42602;SDS011;28233;55.748;48.752;2023-03-01T03:28:34;3.50;;;2.05;;
42602;SDS011;28233;55.748;48.752;2023-03-01T03:30:38;3.50;;;1.55;;
42602;SDS011;28233;55.748;48.752;2023-03-01T03:32:43;3.50;;;1.63;;
42602;SDS011;28233;55.748;48.752;2023-03-01T03:34:54;2.95;;;1.42;;
42602;SDS011;28233;55.748;48.752;2023-03-01T03:36:57;3.55;;;2.15;;
42602;SDS011;28233;55.748;48.752;2023-03-01T03:39:01;4.80;;;1.85;;
42602;SDS011;28233;55.748;48.752;2023-03-01T03:41:05;5.85;;;1.55;;
42602;SDS011;28233;55.748;48.752;2023-03-01T03:43:11;5.18;;;1.90;;
42602;SDS011;28233;55.748;48.752;2023-03-01T03:45:18;2.25;;;1.38;;
42602;SDS011;28233;55.748;48.752;2023-03-01T03:47:21;4.35;;;1.92;;
42602;SDS011;28233;55.748;48.752;2023-03-01T03:49:23;4.18;;;1.73;;
42602;SDS011;28233;55.748;48.752;2023-03-01T03:51:26;3.03;;;1.57;;
42602;SDS011;28233;55.748;48.752;2023-03-01T03:53:29;3.90;;;1.97;;
42602;SDS011;28233;55.748;48.752;2023-03-01T03:55:32;3.43;;;1.90;;
42602;SDS011;28233;55.748;48.752;2023-03-01T03:57:39;3.45;;;1.73;;
42602;SDS011;28233;55.748;48.752;2023-03-01T03:59:43;5.17;;;1.70;;
42602;SDS011;28233;55.748;48.752;2023-03-01T04:01:45;1.88;;;1.20;;
42602;SDS011;28233;55.748;48.752;2023-03-01T04:03:48;2.90;;;1.30;;
42602;SDS011;28233;55.748;48.752;2023-03-01T04:05:52;4.10;;;1.47;;
42602;SDS011;28233;55.748;48.752;2023-03-01T04:07:55;2.88;;;1.40;;
42602;SDS011;28233;55.748;48.752;2023-03-01T04:10:04;3.35;;;1.67;;
42602;SDS011;28233;55.748;48.752;2023-03-01T04:12:09;4.18;;;1.80;;
42602;SDS011;28233;55.748;48.752;2023-03-01T04:14:12;2.40;;;1.33;;
42602;SDS011;28233;55.748;48.752;2023-03-01T04:16:15;6.60;;;1.55;;
42602;SDS011;28233;55.748;48.752;2023-03-01T04:18:19;3.78;;;1.60;;
42602;SDS011;28233;55.748;48.752;2023-03-01T04:20:24;7.13;;;1.42;;
42602;SDS011;28233;55.748;48.752;2023-03-01T04:22:29;2.97;;;1.33;;
42602;SDS011;28233;55.748;48.752;2023-03-01T04:24:31;3.78;;;1.92;;
42602;SDS011;28233;55.748;48.752;2023-03-01T04:26:34;2.70;;;1.17;;
42602;SDS011;28233;55.748;48.752;2023-03-01T04:28:38;0.90;;;0.70;;
42602;SDS011;28233;55.748;48.752;2023-03-01T04:30:45;4.05;;;1.55;;
42602;SDS011;28233;55.748;48.752;2023-03-01T04:32:47;4.22;;;1.73;;
42602;SDS011;28233;55.748;48.752;2023-03-01T04:34:50;4.05;;;1.23;;
42602;SDS011;28233;55.748;48.752;2023-03-01T04:36:52;3.65;;;2.03;;
42602;SDS011;28233;55.748;48.752;2023-03-01T04:38:55;2.88;;;1.40;;
42602;SDS011;28233;55.748;48.752;2023-03-01T04:40:58;7.45;;;1.77;;
42602;SDS011;28233;55.748;48.752;2023-03-01T04:43:01;5.43;;;1.45;;
42602;SDS011;28233;55.748;48.752;2023-03-01T04:45:05;4.70;;;1.30;;
42602;SDS011;28233;55.748;48.752;2023-03-01T04:47:15;2.65;;;1.45;;
42602;SDS011;28233;55.748;48.752;2023-03-01T04:49:17;4.55;;;1.77;;
42602;SDS011;28233;55.748;48.752;2023-03-01T04:51:20;6.63;;;1.65;;
42602;SDS011;28233;55.748;48.752;2023-03-01T04:53:23;2.43;;;1.57;;
42602;SDS011;28233;55.748;48.752;2023-03-01T04:55:27;8.13;;;2.40;;
42602;SDS011;28233;55.748;48.752;2023-03-01T04:57:30;8.70;;;1.90;;
42602;SDS011;28233;55.748;48.752;2023-03-01T04:59:33;4.65;;;2.33;;
42602;SDS011;28233;55.748;48.752;2023-03-01T05:01:38;8.88;;;2.60;;
42602;SDS011;28233;55.748;48.752;2023-03-01T05:03:41;10.27;;;2.75;;
42602;SDS011;28233;55.748;48.752;2023-03-01T05:05:49;5.05;;;2.60;;
42602;SDS011;28233;55.748;48.752;2023-03-01T05:07:54;8.30;;;2.45;;
42602;SDS011;28233;55.748;48.752;2023-03-01T05:10:01;8.70;;;2.72;;
42602;SDS011;28233;55.748;48.752;2023-03-01T05:12:04;10.27;;;3.20;;
42602;SDS011;28233;55.748;48.752;2023-03-01T05:14:07;7.68;;;3.53;;
42602;SDS011;28233;55.748;48.752;2023-03-01T05:16:11;9.93;;;3.88;;
42602;SDS011;28233;55.748;48.752;2023-03-01T05:18:15;9.68;;;3.90;;
42602;SDS011;28233;55.748;48.752;2023-03-01T05:20:18;9.48;;;2.78;;
42602;SDS011;28233;55.748;48.752;2023-03-01T05:22:25;10.57;;;4.25;;
42602;SDS011;28233;55.748;48.752;2023-03-01T05:24:28;7.03;;;2.70;;
42602;SDS011;28233;55.748;48.752;2023-03-01T05:26:33;5.30;;;2.10;;
42602;SDS011;28233;55.748;48.752;2023-03-01T05:28:36;3.95;;;1.98;;
42602;SDS011;28233;55.748;48.752;2023-03-01T05:30:40;3.80;;;1.67;;
42602;SDS011;28233;55.748;48.752;2023-03-01T05:32:47;5.43;;;2.33;;
42602;SDS011;28233;55.748;48.752;2023-03-01T05:34:51;7.38;;;1.60;;
42602;SDS011;28233;55.748;48.752;2023-03-01T05:36:54;6.57;;;1.90;;
42602;SDS011;28233;55.748;48.752;2023-03-01T05:38:57;5.40;;;2.05;;
42602;SDS011;28233;55.748;48.752;2023-03-01T05:40:59;3.55;;;1.52;;
42602;SDS011;28233;55.748;48.752;2023-03-01T05:43:02;5.10;;;2.45;;
42602;SDS011;28233;55.748;48.752;2023-03-01T05:45:07;7.85;;;2.03;;
42602;SDS011;28233;55.748;48.752;2023-03-01T05:47:11;7.00;;;1.83;;
42602;SDS011;28233;55.748;48.752;2023-03-01T05:49:14;6.70;;;2.10;;
42602;SDS011;28233;55.748;48.752;2023-03-01T05:51:17;4.22;;;2.88;;
42602;SDS011;28233;55.748;48.752;2023-03-01T05:53:19;4.95;;;1.95;;
42602;SDS011;28233;55.748;48.752;2023-03-01T05:55:25;8.57;;;1.98;;
42602;SDS011;28233;55.748;48.752;2023-03-01T05:57:30;4.65;;;1.77;;
42602;SDS011;28233;55.748;48.752;2023-03-01T05:59:32;6.05;;;2.28;;
42602;SDS011;28233;55.748;48.752;2023-03-01T06:01:35;6.95;;;2.13;;
42602;SDS011;28233;55.748;48.752;2023-03-01T06:03:38;5.72;;;2.00;;
42602;SDS011;28233;55.748;48.752;2023-03-01T06:05:41;9.05;;;2.60;;
42602;SDS011;28233;55.748;48.752;2023-03-01T06:07:44;5.45;;;2.35;;
42602;SDS011;28233;55.748;48.752;2023-03-01T06:09:47;3.67;;;1.20;;
42602;SDS011;28233;55.748;48.752;2023-03-01T06:11:50;7.07;;;1.10;;
42602;SDS011;28233;55.748;48.752;2023-03-01T06:13:52;2.33;;;0.95;;
42602;SDS011;28233;55.748;48.752;2023-03-01T06:15:55;3.13;;;0.77;;
42602;SDS011;28233;55.748;48.752;2023-03-01T06:17:58;3.58;;;1.10;;
42602;SDS011;28233;55.748;48.752;2023-03-01T06:20:01;1.63;;;0.63;;
42602;SDS011;28233;55.748;48.752;2023-03-01T06:22:04;1.60;;;0.60;;
42602;SDS011;28233;55.748;48.752;2023-03-01T06:24:06;2.87;;;0.67;;
42602;SDS011;28233;55.748;48.752;2023-03-01T06:26:10;2.07;;;0.73;;
42602;SDS011;28233;55.748;48.752;2023-03-01T06:28:13;4.03;;;0.82;;
42602;SDS011;28233;55.748;48.752;2023-03-01T06:30:16;4.90;;;1.07;;
42602;SDS011;28233;55.748;48.752;2023-03-01T06:32:21;2.33;;;0.60;;
42602;SDS011;28233;55.748;48.752;2023-03-01T06:34:24;1.00;;;0.50;;
42602;SDS011;28233;55.748;48.752;2023-03-01T06:36:27;1.60;;;0.60;;
42602;SDS011;28233;55.748;48.752;2023-03-01T06:38:30;3.63;;;0.80;;
42602;SDS011;28233;55.748;48.752;2023-03-01T06:40:32;1.37;;;0.40;;
42602;SDS011;28233;55.748;48.752;2023-03-01T06:42:38;2.23;;;0.60;;
42602;SDS011;28233;55.748;48.752;2023-03-01T06:44:41;4.57;;;1.27;;
42602;SDS011;28233;55.748;48.752;2023-03-01T06:46:44;3.83;;;0.83;;
42602;SDS011;28233;55.748;48.752;2023-03-01T06:48:47;2.45;;;0.90;;
42602;SDS011;28233;55.748;48.752;2023-03-01T06:50:49;5.50;;;0.93;;
42602;SDS011;28233;55.748;48.752;2023-03-01T06:52:55;3.63;;;1.00;;
42602;SDS011;28233;55.748;48.752;2023-03-01T06:54:58;4.28;;;0.90;;
42602;SDS011;28233;55.748;48.752;2023-03-01T06:57:01;0.75;;;0.68;;
42602;SDS011;28233;55.748;48.752;2023-03-01T06:59:04;4.45;;;0.50;;
42602;SDS011;28233;55.748;48.752;2023-03-01T07:01:08;1.50;;;0.70;;
42602;SDS011;28233;55.748;48.752;2023-03-01T07:03:11;4.78;;;0.50;;
42602;SDS011;28233;55.748;48.752;2023-03-01T07:05:14;1.55;;;0.63;;
42602;SDS011;28233;55.748;48.752;2023-03-01T07:07:16;2.75;;;0.85;;
42602;SDS011;28233;55.748;48.752;2023-03-01T07:09:21;3.20;;;0.70;;
42602;SDS011;28233;55.748;48.752;2023-03-01T07:11:24;1.48;;;0.77;;
42602;SDS011;28233;55.748;48.752;2023-03-01T07:13:27;3.58;;;1.20;;
42602;SDS011;28233;55.748;48.752;2023-03-01T07:15:30;6.55;;;1.10;;
42602;SDS011;28233;55.748;48.752;2023-03-01T07:17:33;8.10;;;0.82;;
42602;SDS011;28233;55.748;48.752;2023-03-01T07:19:35;1.92;;;0.43;;
42602;SDS011;28233;55.748;48.752;2023-03-01T07:21:38;2.78;;;0.57;;
42602;SDS011;28233;55.748;48.752;2023-03-01T07:23:40;1.25;;;0.40;;
42602;SDS011;28233;55.748;48.752;2023-03-01T07:25:43;1.75;;;1.02;;
42602;SDS011;28233;55.748;48.752;2023-03-01T07:27:50;5.13;;;0.68;;
42602;SDS011;28233;55.748;48.752;2023-03-01T07:29:55;3.47;;;0.77;;
42602;SDS011;28233;55.748;48.752;2023-03-01T07:31:58;2.30;;;1.02;;
42602;SDS011;28233;55.748;48.752;2023-03-01T07:34:01;2.42;;;0.65;;
42602;SDS011;28233;55.748;48.752;2023-03-01T07:36:04;2.47;;;0.70;;
42602;SDS011;28233;55.748;48.752;2023-03-01T07:38:07;1.60;;;0.90;;
42602;SDS011;28233;55.748;48.752;2023-03-01T07:40:10;3.15;;;0.60;;
42602;SDS011;28233;55.748;48.752;2023-03-01T07:42:14;2.53;;;0.82;;
42602;SDS011;28233;55.748;48.752;2023-03-01T07:44:16;7.70;;;1.48;;
42602;SDS011;28233;55.748;48.752;2023-03-01T07:46:19;3.00;;;0.80;;
42602;SDS011;28233;55.748;48.752;2023-03-01T07:48:22;0.85;;;0.55;;
42602;SDS011;28233;55.748;48.752;2023-03-01T07:50:25;2.58;;;0.55;;
42602;SDS011;28233;55.748;48.752;2023-03-01T07:52:27;1.20;;;0.32;;
42602;SDS011;28233;55.748;48.752;2023-03-01T07:54:30;1.67;;;0.93;;
42602;SDS011;28233;55.748;48.752;2023-03-01T07:56:33;2.47;;;0.65;;
42602;SDS011;28233;55.748;48.752;2023-03-01T07:58:39;2.40;;;0.60;;
42602;SDS011;28233;55.748;48.752;2023-03-01T08:00:44;1.65;;;0.40;;
42602;SDS011;28233;55.748;48.752;2023-03-01T08:02:46;2.90;;;0.70;;
42602;SDS011;28233;55.748;48.752;2023-03-01T08:04:49;2.83;;;0.50;;
42602;SDS011;28233;55.748;48.752;2023-03-01T08:06:52;2.33;;;0.52;;
42602;SDS011;28233;55.748;48.752;2023-03-01T08:08:55;3.25;;;0.50;;
42602;SDS011;28233;55.748;48.752;2023-03-01T08:10:59;3.00;;;0.90;;
42602;SDS011;28233;55.748;48.752;2023-03-01T08:13:02;1.60;;;0.50;;
42602;SDS011;28233;55.748;48.752;2023-03-01T08:15:05;2.40;;;0.65;;
42602;SDS011;28233;55.748;48.752;2023-03-01T08:17:08;7.32;;;1.20;;
42602;SDS011;28233;55.748;48.752;2023-03-01T08:19:11;2.55;;;0.50;;
42602;SDS011;28233;55.748;48.752;2023-03-01T08:21:16;2.53;;;0.80;;
42602;SDS011;28233;55.748;48.752;2023-03-01T08:23:19;5.20;;;0.80;;
42602;SDS011;28233;55.748;48.752;2023-03-01T08:25:22;4.60;;;0.65;;
42602;SDS011;28233;55.748;48.752;2023-03-01T08:27:25;3.67;;;1.42;;
42602;SDS011;28233;55.748;48.752;2023-03-01T08:29:28;4.55;;;0.82;;
42602;SDS011;28233;55.748;48.752;2023-03-01T08:31:35;4.00;;;0.70;;
42602;SDS011;28233;55.748;48.752;2023-03-01T08:33:39;3.95;;;0.73;;
42602;SDS011;28233;55.748;48.752;2023-03-01T08:35:42;3.40;;;0.50;;
42602;SDS011;28233;55.748;48.752;2023-03-01T08:37:45;4.70;;;1.10;;
42602;SDS011;28233;55.748;48.752;2023-03-01T08:39:47;3.63;;;0.90;;
42602;SDS011;28233;55.748;48.752;2023-03-01T08:41:50;1.23;;;0.50;;
42602;SDS011;28233;55.748;48.752;2023-03-01T08:43:53;4.25;;;0.65;;
42602;SDS011;28233;55.748;48.752;2023-03-01T08:46:01;4.72;;;0.55;;
42602;SDS011;28233;55.748;48.752;2023-03-01T08:48:03;1.02;;;0.43;;
42602;SDS011;28233;55.748;48.752;2023-03-01T08:50:06;2.00;;;0.50;;
42602;SDS011;28233;55.748;48.752;2023-03-01T08:52:09;3.78;;;0.70;;
42602;SDS011;28233;55.748;48.752;2023-03-01T08:54:13;5.47;;;1.17;;
42602;SDS011;28233;55.748;48.752;2023-03-01T08:56:21;1.58;;;0.90;;
42602;SDS011;28233;55.748;48.752;2023-03-01T08:58:24;2.92;;;1.08;;
42602;SDS011;28233;55.748;48.752;2023-03-01T09:00:26;4.88;;;1.38;;
42602;SDS011;28233;55.748;48.752;2023-03-01T09:02:30;3.15;;;1.17;;
42602;SDS011;28233;55.748;48.752;2023-03-01T09:04:32;2.38;;;0.80;;
42602;SDS011;28233;55.748;48.752;2023-03-01T09:06:35;7.70;;;0.70;;
42602;SDS011;28233;55.748;48.752;2023-03-01T09:08:39;2.90;;;0.73;;
42602;SDS011;28233;55.748;48.752;2023-03-01T09:10:52;2.05;;;0.93;;
42602;SDS011;28233;55.748;48.752;2023-03-01T09:12:54;7.40;;;1.23;;
42602;SDS011;28233;55.748;48.752;2023-03-01T09:14:57;2.78;;;0.93;;
42602;SDS011;28233;55.748;48.752;2023-03-01T09:17:00;3.05;;;0.82;;
42602;SDS011;28233;55.748;48.752;2023-03-01T09:19:05;3.55;;;1.15;;
42602;SDS011;28233;55.748;48.752;2023-03-01T09:21:11;1.27;;;0.60;;
42602;SDS011;28233;55.748;48.752;2023-03-01T09:23:16;1.63;;;0.80;;
42602;SDS011;28233;55.748;48.752;2023-03-01T09:25:18;0.63;;;0.45;;
42602;SDS011;28233;55.748;48.752;2023-03-01T09:27:21;2.42;;;0.60;;
42602;SDS011;28233;55.748;48.752;2023-03-01T09:29:23;3.45;;;0.60;;
42602;SDS011;28233;55.748;48.752;2023-03-01T09:31:26;3.70;;;0.77;;
42602;SDS011;28233;55.748;48.752;2023-03-01T09:33:29;2.17;;;0.75;;
42602;SDS011;28233;55.748;48.752;2023-03-01T09:35:34;2.85;;;0.95;;
42602;SDS011;28233;55.748;48.752;2023-03-01T09:37:36;2.47;;;0.60;;
42602;SDS011;28233;55.748;48.752;2023-03-01T09:39:40;2.60;;;0.57;;
42602;SDS011;28233;55.748;48.752;2023-03-01T09:41:50;6.78;;;2.15;;
42602;SDS011;28233;55.748;48.752;2023-03-01T09:46:32;4.53;;;0.50;;
42602;SDS011;28233;55.748;48.752;2023-03-01T09:50:46;3.33;;;1.02;;
42602;SDS011;28233;55.748;48.752;2023-03-01T09:53:10;2.22;;;0.80;;
42602;SDS011;28233;55.748;48.752;2023-03-01T09:55:26;4.53;;;0.73;;
42602;SDS011;28233;55.748;48.752;2023-03-01T09:57:33;3.92;;;0.60;;
42602;SDS011;28233;55.748;48.752;2023-03-01T10:00:29;3.58;;;0.77;;
42602;SDS011;28233;55.748;48.752;2023-03-01T10:04:48;6.13;;;0.57;;
42602;SDS011;28233;55.748;48.752;2023-03-01T10:09:15;2.60;;;0.38;;
42602;SDS011;28233;55.748;48.752;2023-03-01T10:11:20;0.73;;;0.30;;
42602;SDS011;28233;55.748;48.752;2023-03-01T10:13:29;1.90;;;0.70;;
42602;SDS011;28233;55.748;48.752;2023-03-01T10:15:53;1.48;;;0.68;;
42602;SDS011;28233;55.748;48.752;2023-03-01T10:20:20;4.18;;;0.70;;
42602;SDS011;28233;55.748;48.752;2023-03-01T10:22:29;1.30;;;0.50;;
42602;SDS011;28233;55.748;48.752;2023-03-01T10:24:34;1.48;;;0.60;;
42602;SDS011;28233;55.748;48.752;2023-03-01T10:26:51;4.28;;;0.60;;
42602;SDS011;28233;55.748;48.752;2023-03-01T10:31:03;3.40;;;0.60;;
42602;SDS011;28233;55.748;48.752;2023-03-01T10:35:42;1.80;;;0.60;;
42602;SDS011;28233;55.748;48.752;2023-03-01T10:37:58;1.25;;;0.55;;
42602;SDS011;28233;55.748;48.752;2023-03-01T10:40:11;4.78;;;0.65;;
42602;SDS011;28233;55.748;48.752;2023-03-01T10:42:25;4.93;;;0.65;;
42602;SDS011;28233;55.748;48.752;2023-03-01T10:44:37;0.85;;;0.68;;
42602;SDS011;28233;55.748;48.752;2023-03-01T10:46:44;0.93;;;0.60;;
42602;SDS011;28233;55.748;48.752;2023-03-01T10:48:53;2.05;;;0.75;;
42602;SDS011;28233;55.748;48.752;2023-03-01T10:51:12;3.33;;;0.60;;
42602;SDS011;28233;55.748;48.752;2023-03-01T10:53:21;5.00;;;0.60;;
42602;SDS011;28233;55.748;48.752;2023-03-01T10:55:33;2.58;;;0.93;;
42602;SDS011;28233;55.748;48.752;2023-03-01T10:57:39;1.40;;;0.60;;
42602;SDS011;28233;55.748;48.752;2023-03-01T10:59:43;1.20;;;0.40;;
42602;SDS011;28233;55.748;48.752;2023-03-01T11:01:46;2.33;;;0.40;;
42602;SDS011;28233;55.748;48.752;2023-03-01T11:04:16;0.95;;;0.50;;
42602;SDS011;28233;55.748;48.752;2023-03-01T11:06:20;1.00;;;0.40;;
42602;SDS011;28233;55.748;48.752;2023-03-01T11:08:37;1.65;;;0.65;;
42602;SDS011;28233;55.748;48.752;2023-03-01T11:10:47;4.60;;;0.57;;
42602;SDS011;28233;55.748;48.752;2023-03-01T11:12:51;4.63;;;0.60;;
42602;SDS011;28233;55.748;48.752;2023-03-01T11:14:55;6.07;;;0.47;;
42602;SDS011;28233;55.748;48.752;2023-03-01T11:16:59;0.77;;;0.45;;
42602;SDS011;28233;55.748;48.752;2023-03-01T11:19:17;3.95;;;0.73;;
42602;SDS011;28233;55.748;48.752;2023-03-01T11:21:21;1.83;;;0.55;;
42602;SDS011;28233;55.748;48.752;2023-03-01T11:23:25;2.33;;;0.65;;
42602;SDS011;28233;55.748;48.752;2023-03-01T11:25:33;3.17;;;0.70;;
42602;SDS011;28233;55.748;48.752;2023-03-01T11:27:43;1.40;;;0.68;;
42602;SDS011;28233;55.748;48.752;2023-03-01T11:29:55;3.13;;;0.50;;
42602;SDS011;28233;55.748;48.752;2023-03-01T11:32:26;1.25;;;0.38;;
42602;SDS011;28233;55.748;48.752;2023-03-01T11:34:47;1.25;;;0.40;;
42602;SDS011;28233;55.748;48.752;2023-03-01T11:36:58;4.22;;;0.50;;
42602;SDS011;28233;55.748;48.752;2023-03-01T11:41:28;0.93;;;0.50;;
42602;SDS011;28233;55.748;48.752;2023-03-01T11:50:53;1.33;;;0.65;;
42602;SDS011;28233;55.748;48.752;2023-03-01T11:58:00;1.85;;;1.08;;
42602;SDS011;28233;55.748;48.752;2023-03-01T12:00:25;3.03;;;0.70;;
42602;SDS011;28233;55.748;48.752;2023-03-01T12:03:00;3.92;;;0.85;;
42602;SDS011;28233;55.748;48.752;2023-03-01T12:07:45;0.75;;;0.68;;
42602;SDS011;28233;55.748;48.752;2023-03-01T12:10:41;1.55;;;0.55;;
42602;SDS011;28233;55.748;48.752;2023-03-01T12:12:45;3.28;;;0.60;;
42602;SDS011;28233;55.748;48.752;2023-03-01T12:17:40;1.13;;;0.60;;
42602;SDS011;28233;55.748;48.752;2023-03-01T12:28:40;1.75;;;0.40;;
42602;SDS011;28233;55.748;48.752;2023-03-01T12:38:50;2.35;;;0.52;;
42602;SDS011;28233;55.748;48.752;2023-03-01T12:41:34;0.90;;;0.53;;
42602;SDS011;28233;55.748;48.752;2023-03-01T12:46:01;3.28;;;1.20;;
42602;SDS011;28233;55.748;48.752;2023-03-01T12:50:32;1.45;;;0.70;;
42602;SDS011;28233;55.748;48.752;2023-03-01T12:52:45;1.42;;;0.55;;
42602;SDS011;28233;55.748;48.752;2023-03-01T12:54:53;2.30;;;0.60;;
42602;SDS011;28233;55.748;48.752;2023-03-01T12:57:08;2.17;;;0.50;;
42602;SDS011;28233;55.748;48.752;2023-03-01T12:59:23;4.20;;;0.65;;
42602;SDS011;28233;55.748;48.752;2023-03-01T13:04:33;4.57;;;0.50;;
42602;SDS011;28233;55.748;48.752;2023-03-01T13:09:59;2.10;;;0.65;;
42602;SDS011;28233;55.748;48.752;2023-03-01T13:12:41;4.28;;;1.88;;
42602;SDS011;28233;55.748;48.752;2023-03-01T13:14:53;1.23;;;0.55;;
42602;SDS011;28233;55.748;48.752;2023-03-01T13:16:56;1.35;;;0.80;;
42602;SDS011;28233;55.748;48.752;2023-03-01T13:19:10;2.87;;;0.73;;
42602;SDS011;28233;55.748;48.752;2023-03-01T13:21:29;2.60;;;0.60;;
42602;SDS011;28233;55.748;48.752;2023-03-01T13:23:34;3.47;;;0.82;;
42602;SDS011;28233;55.748;48.752;2023-03-01T13:30:45;1.30;;;0.53;;
42602;SDS011;28233;55.748;48.752;2023-03-01T13:33:05;2.85;;;0.90;;
42602;SDS011;28233;55.748;48.752;2023-03-01T13:37:32;3.93;;;0.80;;
42602;SDS011;28233;55.748;48.752;2023-03-01T13:39:40;3.10;;;0.70;;
42602;SDS011;28233;55.748;48.752;2023-03-01T13:43:45;1.63;;;1.03;;
42602;SDS011;28233;55.748;48.752;2023-03-01T13:45:49;2.80;;;0.93;;
42602;SDS011;28233;55.748;48.752;2023-03-01T13:47:53;3.40;;;1.23;;
42602;SDS011;28233;55.748;48.752;2023-03-01T13:50:01;1.20;;;0.60;;